Terminal Aerodrome Forecast
Issued by NWS Cleveland, OH

Home | Current Version | Previous Version | Graphics & Text | Print | Product List | Glossary On
Versions: 1 2 3 4 5 6 7 8 9 10 11 12 13 14 15 16 17 18 19 20 21 22 23 24 25 26 27 28 29 30 31 32
000
FTUS41 KCLE 041901 AAB
TAFCLE
TAF AMD
KCLE 041901Z 0419/0524 VRB04KT P6SM VCSH OVC050
     FM041915 22010G22KT 4SM -TSRA BR OVC050CB
     FM042000 22010KT 6SM -SHRA OVC035
      TEMPO 0420/0422 01015KT 3SM TSRA OVC025CB
     FM042200 02007KT 5SM -SHRA BR OVC025
     FM050200 02007KT P6SM OVC015
      TEMPO 0511/0514 BKN008 OVC015
     FM051400 02015KT P6SM SCT008 OVC015
     FM051800 02012KT P6SM BKN035=

USA.gov is the U.S. government's official web portal to all federal, state and local government web resources and services.